sensor_id;sensor_type;location;lat;lon;timestamp;temperature;humidity
64670;DHT22;51080;51.690;5.174;2022-08-01T00:05:32;20.10;79.40
64670;DHT22;51080;51.690;5.174;2022-08-01T00:11:16;20.10;79.00
64670;DHT22;51080;51.690;5.174;2022-08-01T00:17:01;20.00;78.90
64670;DHT22;51080;51.690;5.174;2022-08-01T00:22:45;19.90;79.10
64670;DHT22;51080;51.690;5.174;2022-08-01T00:28:29;19.90;78.80
64670;DHT22;51080;51.690;5.174;2022-08-01T00:34:13;19.90;78.70
64670;DHT22;51080;51.690;5.174;2022-08-01T00:39:57;19.90;78.70
64670;DHT22;51080;51.690;5.174;2022-08-01T00:45:42;19.80;78.50
64670;DHT22;51080;51.690;5.174;2022-08-01T00:51:27;19.80;78.70
64670;DHT22;51080;51.690;5.174;2022-08-01T00:57:12;19.80;78.60
64670;DHT22;51080;51.690;5.174;2022-08-01T01:02:57;19.70;78.60
64670;DHT22;51080;51.690;5.174;2022-08-01T01:08:48;19.70;78.70
64670;DHT22;51080;51.690;5.174;2022-08-01T01:27:21;19.70;78.70
64670;DHT22;51080;51.690;5.174;2022-08-01T01:33:06;19.70;78.50
64670;DHT22;51080;51.690;5.174;2022-08-01T01:38:52;19.80;78.40
64670;DHT22;51080;51.690;5.174;2022-08-01T01:44:38;19.70;78.80
64670;DHT22;51080;51.690;5.174;2022-08-01T01:50:23;19.70;78.90
64670;DHT22;51080;51.690;5.174;2022-08-01T01:56:08;19.60;78.80
64670;DHT22;51080;51.690;5.174;2022-08-01T02:01:56;19.60;79.00
64670;DHT22;51080;51.690;5.174;2022-08-01T02:07:42;19.60;79.00
64670;DHT22;51080;51.690;5.174;2022-08-01T02:13:27;19.50;79.20
64670;DHT22;51080;51.690;5.174;2022-08-01T02:19:10;19.50;79.00
64670;DHT22;51080;51.690;5.174;2022-08-01T02:25:06;19.50;78.60
64670;DHT22;51080;51.690;5.174;2022-08-01T02:30:49;19.20;79.10
64670;DHT22;51080;51.690;5.174;2022-08-01T02:36:34;18.90;80.00
64670;DHT22;51080;51.690;5.174;2022-08-01T02:42:20;18.80;80.60
64670;DHT22;51080;51.690;5.174;2022-08-01T02:48:10;18.80;80.50
64670;DHT22;51080;51.690;5.174;2022-08-01T02:53:57;18.90;80.20
64670;DHT22;51080;51.690;5.174;2022-08-01T02:59:44;19.00;80.00
64670;DHT22;51080;51.690;5.174;2022-08-01T03:05:30;19.00;80.00
64670;DHT22;51080;51.690;5.174;2022-08-01T03:11:46;18.90;80.60
64670;DHT22;51080;51.690;5.174;2022-08-01T03:17:31;18.70;79.80
64670;DHT22;51080;51.690;5.174;2022-08-01T03:23:17;18.50;81.60
64670;DHT22;51080;51.690;5.174;2022-08-01T03:29:05;18.50;81.30
64670;DHT22;51080;51.690;5.174;2022-08-01T03:34:50;18.40;81.50
64670;DHT22;51080;51.690;5.174;2022-08-01T03:40:44;18.30;81.90
64670;DHT22;51080;51.690;5.174;2022-08-01T03:46:39;18.20;81.80
64670;DHT22;51080;51.690;5.174;2022-08-01T03:52:27;18.20;81.70
64670;DHT22;51080;51.690;5.174;2022-08-01T03:58:13;18.20;82.20
64670;DHT22;51080;51.690;5.174;2022-08-01T04:04:28;18.20;82.20
64670;DHT22;51080;51.690;5.174;2022-08-01T04:10:13;18.20;83.10
64670;DHT22;51080;51.690;5.174;2022-08-01T04:15:57;18.40;81.50
64670;DHT22;51080;51.690;5.174;2022-08-01T04:21:42;18.50;81.00
64670;DHT22;51080;51.690;5.174;2022-08-01T04:27:29;18.60;80.90
64670;DHT22;51080;51.690;5.174;2022-08-01T04:33:15;18.60;81.40
64670;DHT22;51080;51.690;5.174;2022-08-01T04:39:02;18.70;81.00
64670;DHT22;51080;51.690;5.174;2022-08-01T04:44:46;18.80;80.70
64670;DHT22;51080;51.690;5.174;2022-08-01T04:50:31;18.70;80.60
64670;DHT22;51080;51.690;5.174;2022-08-01T04:56:20;18.70;80.90
64670;DHT22;51080;51.690;5.174;2022-08-01T05:02:05;18.80;80.80
64670;DHT22;51080;51.690;5.174;2022-08-01T05:07:50;18.90;80.70
64670;DHT22;51080;51.690;5.174;2022-08-01T05:13:35;18.80;80.90
64670;DHT22;51080;51.690;5.174;2022-08-01T05:19:17;18.70;81.50
64670;DHT22;51080;51.690;5.174;2022-08-01T05:25:00;18.70;81.60
64670;DHT22;51080;51.690;5.174;2022-08-01T05:30:44;18.60;81.60
64670;DHT22;51080;51.690;5.174;2022-08-01T05:36:29;18.60;81.80
64670;DHT22;51080;51.690;5.174;2022-08-01T05:42:13;18.60;82.50
64670;DHT22;51080;51.690;5.174;2022-08-01T05:47:57;18.70;81.90
64670;DHT22;51080;51.690;5.174;2022-08-01T05:53:40;18.70;81.90
64670;DHT22;51080;51.690;5.174;2022-08-01T05:59:54;18.70;81.50
64670;DHT22;51080;51.690;5.174;2022-08-01T06:05:38;18.70;82.00
64670;DHT22;51080;51.690;5.174;2022-08-01T06:11:22;19.00;80.90
64670;DHT22;51080;51.690;5.174;2022-08-01T06:17:06;19.30;80.10
64670;DHT22;51080;51.690;5.174;2022-08-01T06:22:50;19.60;79.20
64670;DHT22;51080;51.690;5.174;2022-08-01T06:28:34;19.70;78.60
64670;DHT22;51080;51.690;5.174;2022-08-01T06:34:18;19.80;78.10
64670;DHT22;51080;51.690;5.174;2022-08-01T06:40:04;20.00;78.00
64670;DHT22;51080;51.690;5.174;2022-08-01T06:45:49;20.40;76.60
64670;DHT22;51080;51.690;5.174;2022-08-01T06:51:34;20.70;76.00
64670;DHT22;51080;51.690;5.174;2022-08-01T06:57:19;21.00;75.20
64670;DHT22;51080;51.690;5.174;2022-08-01T07:03:04;21.10;74.70
64670;DHT22;51080;51.690;5.174;2022-08-01T07:08:48;21.10;74.80
64670;DHT22;51080;51.690;5.174;2022-08-01T07:14:33;21.20;74.30
64670;DHT22;51080;51.690;5.174;2022-08-01T07:20:18;21.40;73.70
64670;DHT22;51080;51.690;5.174;2022-08-01T07:26:04;21.50;73.40
64670;DHT22;51080;51.690;5.174;2022-08-01T07:31:48;21.50;73.30
64670;DHT22;51080;51.690;5.174;2022-08-01T07:37:41;21.50;73.20
64670;DHT22;51080;51.690;5.174;2022-08-01T07:43:27;21.50;73.60
64670;DHT22;51080;51.690;5.174;2022-08-01T07:49:11;21.80;72.60
64670;DHT22;51080;51.690;5.174;2022-08-01T07:54:55;22.10;72.30
64670;DHT22;51080;51.690;5.174;2022-08-01T08:00:40;22.40;71.60
64670;DHT22;51080;51.690;5.174;2022-08-01T08:06:24;22.80;70.60
64670;DHT22;51080;51.690;5.174;2022-08-01T08:12:09;23.10;69.80
64670;DHT22;51080;51.690;5.174;2022-08-01T08:17:53;23.10;69.40
64670;DHT22;51080;51.690;5.174;2022-08-01T08:23:36;23.40;68.70
64670;DHT22;51080;51.690;5.174;2022-08-01T08:29:21;23.50;68.50
64670;DHT22;51080;51.690;5.174;2022-08-01T08:35:07;23.40;68.50
64670;DHT22;51080;51.690;5.174;2022-08-01T08:40:52;23.30;68.70
64670;DHT22;51080;51.690;5.174;2022-08-01T08:46:49;23.40;68.30
64670;DHT22;51080;51.690;5.174;2022-08-01T08:52:37;23.70;67.90
64670;DHT22;51080;51.690;5.174;2022-08-01T08:58:25;24.40;66.80
64670;DHT22;51080;51.690;5.174;2022-08-01T09:04:11;25.00;61.50
64670;DHT22;51080;51.690;5.174;2022-08-01T09:09:56;26.50;61.30
64670;DHT22;51080;51.690;5.174;2022-08-01T09:15:45;26.80;59.30
64670;DHT22;51080;51.690;5.174;2022-08-01T09:21:30;26.00;61.30
64670;DHT22;51080;51.690;5.174;2022-08-01T09:27:20;24.90;63.20
64670;DHT22;51080;51.690;5.174;2022-08-01T09:33:05;23.50;70.80
64670;DHT22;51080;51.690;5.174;2022-08-01T09:38:50;21.90;74.70
64670;DHT22;51080;51.690;5.174;2022-08-01T09:44:41;21.40;76.60
64670;DHT22;51080;51.690;5.174;2022-08-01T09:50:38;21.10;77.30
64670;DHT22;51080;51.690;5.174;2022-08-01T09:56:22;20.90;77.50
64670;DHT22;51080;51.690;5.174;2022-08-01T10:02:08;21.20;78.50
64670;DHT22;51080;51.690;5.174;2022-08-01T10:08:00;22.90;73.40
64670;DHT22;51080;51.690;5.174;2022-08-01T10:13:45;23.50;71.80
64670;DHT22;51080;51.690;5.174;2022-08-01T10:20:00;24.40;71.80
64670;DHT22;51080;51.690;5.174;2022-08-01T10:25:48;25.90;66.40
64670;DHT22;51080;51.690;5.174;2022-08-01T10:31:32;28.20;62.50
64670;DHT22;51080;51.690;5.174;2022-08-01T10:37:18;28.80;60.40
64670;DHT22;51080;51.690;5.174;2022-08-01T10:43:03;29.20;59.00
64670;DHT22;51080;51.690;5.174;2022-08-01T10:48:58;29.30;58.70
64670;DHT22;51080;51.690;5.174;2022-08-01T10:54:46;29.20;58.30
64670;DHT22;51080;51.690;5.174;2022-08-01T11:00:31;29.00;58.90
64670;DHT22;51080;51.690;5.174;2022-08-01T11:06:17;30.30;56.50
64670;DHT22;51080;51.690;5.174;2022-08-01T11:12:11;29.70;56.50
64670;DHT22;51080;51.690;5.174;2022-08-01T11:17:57;29.60;57.00
64670;DHT22;51080;51.690;5.174;2022-08-01T11:23:49;28.90;58.10
64670;DHT22;51080;51.690;5.174;2022-08-01T11:29:34;29.10;56.70
64670;DHT22;51080;51.690;5.174;2022-08-01T11:35:19;28.30;58.20
64670;DHT22;51080;51.690;5.174;2022-08-01T11:41:16;27.90;59.40
64670;DHT22;51080;51.690;5.174;2022-08-01T11:47:05;28.00;58.70
64670;DHT22;51080;51.690;5.174;2022-08-01T11:52:59;28.00;58.40
64670;DHT22;51080;51.690;5.174;2022-08-01T11:58:45;28.00;58.50
64670;DHT22;51080;51.690;5.174;2022-08-01T12:04:48;28.70;57.20
64670;DHT22;51080;51.690;5.174;2022-08-01T12:10:34;29.10;56.60
64670;DHT22;51080;51.690;5.174;2022-08-01T12:16:19;29.10;56.00
64670;DHT22;51080;51.690;5.174;2022-08-01T12:22:05;29.80;55.20
64670;DHT22;51080;51.690;5.174;2022-08-01T12:27:52;30.30;54.10
64670;DHT22;51080;51.690;5.174;2022-08-01T12:33:37;30.50;53.20
64670;DHT22;51080;51.690;5.174;2022-08-01T12:39:21;30.10;53.70
64670;DHT22;51080;51.690;5.174;2022-08-01T12:45:08;29.80;54.00
64670;DHT22;51080;51.690;5.174;2022-08-01T12:50:54;31.30;51.40
64670;DHT22;51080;51.690;5.174;2022-08-01T12:56:43;32.40;49.40
64670;DHT22;51080;51.690;5.174;2022-08-01T13:02:32;32.10;48.70
64670;DHT22;51080;51.690;5.174;2022-08-01T13:08:28;30.70;50.70
64670;DHT22;51080;51.690;5.174;2022-08-01T13:14:27;30.20;50.70
64670;DHT22;51080;51.690;5.174;2022-08-01T13:26:10;29.60;51.20
64670;DHT22;51080;51.690;5.174;2022-08-01T13:31:55;31.20;48.30
64670;DHT22;51080;51.690;5.174;2022-08-01T13:37:41;32.30;47.20
64670;DHT22;51080;51.690;5.174;2022-08-01T13:43:25;32.80;45.50
64670;DHT22;51080;51.690;5.174;2022-08-01T13:49:11;32.60;46.30
64670;DHT22;51080;51.690;5.174;2022-08-01T13:54:56;32.80;45.80
64670;DHT22;51080;51.690;5.174;2022-08-01T14:00:41;33.20;44.90
64670;DHT22;51080;51.690;5.174;2022-08-01T14:06:25;33.70;44.20
64670;DHT22;51080;51.690;5.174;2022-08-01T14:12:10;32.80;43.70
64670;DHT22;51080;51.690;5.174;2022-08-01T14:17:54;31.40;46.60
64670;DHT22;51080;51.690;5.174;2022-08-01T14:23:39;32.70;43.10
64670;DHT22;51080;51.690;5.174;2022-08-01T14:29:26;33.00;43.00
64670;DHT22;51080;51.690;5.174;2022-08-01T14:35:14;33.80;42.50
64670;DHT22;51080;51.690;5.174;2022-08-01T14:41:02;34.50;40.00
64670;DHT22;51080;51.690;5.174;2022-08-01T14:46:49;32.60;41.70
64670;DHT22;51080;51.690;5.174;2022-08-01T14:52:38;33.40;41.90
64670;DHT22;51080;51.690;5.174;2022-08-01T14:58:26;34.80;40.20
64670;DHT22;51080;51.690;5.174;2022-08-01T15:04:14;35.90;38.40
64670;DHT22;51080;51.690;5.174;2022-08-01T15:10:06;34.40;40.10
64670;DHT22;51080;51.690;5.174;2022-08-01T15:15:53;32.20;42.80
64670;DHT22;51080;51.690;5.174;2022-08-01T15:21:39;32.70;40.60
64670;DHT22;51080;51.690;5.174;2022-08-01T15:27:27;32.30;41.30
64670;DHT22;51080;51.690;5.174;2022-08-01T15:33:15;33.50;40.10
64670;DHT22;51080;51.690;5.174;2022-08-01T15:39:04;34.20;39.30
64670;DHT22;51080;51.690;5.174;2022-08-01T15:44:53;34.90;37.00
64670;DHT22;51080;51.690;5.174;2022-08-01T15:50:41;35.50;37.30
64670;DHT22;51080;51.690;5.174;2022-08-01T15:56:29;36.00;36.90
64670;DHT22;51080;51.690;5.174;2022-08-01T16:02:19;35.70;36.60
64670;DHT22;51080;51.690;5.174;2022-08-01T16:08:06;34.40;38.00
64670;DHT22;51080;51.690;5.174;2022-08-01T16:13:53;32.40;39.10
64670;DHT22;51080;51.690;5.174;2022-08-01T16:19:40;30.60;40.10
64670;DHT22;51080;51.690;5.174;2022-08-01T16:25:27;29.40;41.30
64670;DHT22;51080;51.690;5.174;2022-08-01T16:31:14;28.60;41.70
64670;DHT22;51080;51.690;5.174;2022-08-01T16:37:01;28.00;40.50
64670;DHT22;51080;51.690;5.174;2022-08-01T16:42:49;27.60;41.10
64670;DHT22;51080;51.690;5.174;2022-08-01T16:48:40;27.00;39.70
64670;DHT22;51080;51.690;5.174;2022-08-01T16:54:30;26.60;40.40
64670;DHT22;51080;51.690;5.174;2022-08-01T17:00:20;26.50;42.80
64670;DHT22;51080;51.690;5.174;2022-08-01T17:06:12;26.50;43.70
64670;DHT22;51080;51.690;5.174;2022-08-01T17:12:18;26.40;43.30
64670;DHT22;51080;51.690;5.174;2022-08-01T17:18:22;26.10;43.00
64670;DHT22;51080;51.690;5.174;2022-08-01T17:24:27;25.90;41.10
64670;DHT22;51080;51.690;5.174;2022-08-01T17:30:29;25.80;43.50
64670;DHT22;51080;51.690;5.174;2022-08-01T17:36:20;25.70;44.00
64670;DHT22;51080;51.690;5.174;2022-08-01T17:42:08;25.60;43.60
64670;DHT22;51080;51.690;5.174;2022-08-01T17:47:56;25.50;43.70
64670;DHT22;51080;51.690;5.174;2022-08-01T17:53:48;25.30;44.10
64670;DHT22;51080;51.690;5.174;2022-08-01T17:59:53;25.10;44.30
64670;DHT22;51080;51.690;5.174;2022-08-01T18:05:46;24.80;44.40
64670;DHT22;51080;51.690;5.174;2022-08-01T18:11:39;24.60;44.70
64670;DHT22;51080;51.690;5.174;2022-08-01T18:17:32;24.40;45.40
64670;DHT22;51080;51.690;5.174;2022-08-01T18:23:21;24.20;46.80
64670;DHT22;51080;51.690;5.174;2022-08-01T18:29:09;23.50;48.50
64670;DHT22;51080;51.690;5.174;2022-08-01T18:34:57;23.00;48.10
64670;DHT22;51080;51.690;5.174;2022-08-01T18:40:44;22.90;48.30
64670;DHT22;51080;51.690;5.174;2022-08-01T18:46:31;22.80;48.60
64670;DHT22;51080;51.690;5.174;2022-08-01T18:52:18;22.60;48.20
64670;DHT22;51080;51.690;5.174;2022-08-01T18:58:05;22.40;48.70
64670;DHT22;51080;51.690;5.174;2022-08-01T19:03:52;22.10;48.30
64670;DHT22;51080;51.690;5.174;2022-08-01T19:09:38;21.90;49.30
64670;DHT22;51080;51.690;5.174;2022-08-01T19:15:25;21.70;49.50
64670;DHT22;51080;51.690;5.174;2022-08-01T19:21:09;21.40;49.90
64670;DHT22;51080;51.690;5.174;2022-08-01T19:26:58;21.20;50.40
64670;DHT22;51080;51.690;5.174;2022-08-01T19:32:45;21.00;50.50
64670;DHT22;51080;51.690;5.174;2022-08-01T19:38:31;20.80;51.10
64670;DHT22;51080;51.690;5.174;2022-08-01T19:44:21;20.60;51.90
64670;DHT22;51080;51.690;5.174;2022-08-01T19:50:06;20.40;53.00
64670;DHT22;51080;51.690;5.174;2022-08-01T19:55:54;20.20;53.90
64670;DHT22;51080;51.690;5.174;2022-08-01T20:01:38;19.90;54.30
64670;DHT22;51080;51.690;5.174;2022-08-01T20:07:27;19.70;54.90
64670;DHT22;51080;51.690;5.174;2022-08-01T20:13:12;19.50;55.30
64670;DHT22;51080;51.690;5.174;2022-08-01T20:18:56;19.40;55.30
64670;DHT22;51080;51.690;5.174;2022-08-01T20:24:42;19.20;55.30
64670;DHT22;51080;51.690;5.174;2022-08-01T20:30:28;19.10;55.10
64670;DHT22;51080;51.690;5.174;2022-08-01T20:36:14;18.90;55.40
64670;DHT22;51080;51.690;5.174;2022-08-01T20:42:00;18.90;55.70
64670;DHT22;51080;51.690;5.174;2022-08-01T20:47:48;18.70;55.80
64670;DHT22;51080;51.690;5.174;2022-08-01T20:53:37;18.60;55.80
64670;DHT22;51080;51.690;5.174;2022-08-01T20:59:36;18.60;55.80
64670;DHT22;51080;51.690;5.174;2022-08-01T21:05:26;18.50;56.20
64670;DHT22;51080;51.690;5.174;2022-08-01T21:11:19;18.40;56.60
64670;DHT22;51080;51.690;5.174;2022-08-01T21:17:08;18.30;56.70
64670;DHT22;51080;51.690;5.174;2022-08-01T21:23:13;18.20;56.80
64670;DHT22;51080;51.690;5.174;2022-08-01T21:28:58;18.10;57.20
64670;DHT22;51080;51.690;5.174;2022-08-01T21:34:45;18.00;58.20
64670;DHT22;51080;51.690;5.174;2022-08-01T21:40:32;17.90;58.70
64670;DHT22;51080;51.690;5.174;2022-08-01T21:46:47;17.80;58.90
64670;DHT22;51080;51.690;5.174;2022-08-01T21:52:44;17.70;57.90
64670;DHT22;51080;51.690;5.174;2022-08-01T21:58:44;17.50;59.30
64670;DHT22;51080;51.690;5.174;2022-08-01T22:04:43;17.40;59.80
64670;DHT22;51080;51.690;5.174;2022-08-01T22:10:29;17.30;60.30
64670;DHT22;51080;51.690;5.174;2022-08-01T22:16:14;17.30;60.60
64670;DHT22;51080;51.690;5.174;2022-08-01T22:21:58;17.20;61.00
64670;DHT22;51080;51.690;5.174;2022-08-01T22:27:43;17.10;61.20
64670;DHT22;51080;51.690;5.174;2022-08-01T22:33:58;17.00;61.20
64670;DHT22;51080;51.690;5.174;2022-08-01T22:39:43;17.00;59.70
64670;DHT22;51080;51.690;5.174;2022-08-01T22:58:02;16.90;59.70
64670;DHT22;51080;51.690;5.174;2022-08-01T23:03:49;16.90;60.90
64670;DHT22;51080;51.690;5.174;2022-08-01T23:09:34;16.90;61.10
64670;DHT22;51080;51.690;5.174;2022-08-01T23:15:21;16.90;61.10
64670;DHT22;51080;51.690;5.174;2022-08-01T23:21:04;16.90;60.90
64670;DHT22;51080;51.690;5.174;2022-08-01T23:26:49;16.90;60.50
64670;DHT22;51080;51.690;5.174;2022-08-01T23:32:34;17.00;60.40
64670;DHT22;51080;51.690;5.174;2022-08-01T23:38:19;17.00;59.90
64670;DHT22;51080;51.690;5.174;2022-08-01T23:44:04;17.00;60.00
64670;DHT22;51080;51.690;5.174;2022-08-01T23:49:49;17.00;60.00
64670;DHT22;51080;51.690;5.174;2022-08-01T23:56:03;17.00;59.90
